createdAt,value
2022-12-26T00:10:51.531Z,8.97
2022-12-26T00:13:39.953Z,8.95
2022-12-26T00:16:24.675Z,8.94
2022-12-26T00:18:57.832Z,8.95
2022-12-26T00:21:32.597Z,8.93
2022-12-26T00:38:09.513Z,8.91
2022-12-26T00:40:49.533Z,8.91
2022-12-26T00:43:22.812Z,8.90
2022-12-26T00:45:56.558Z,8.90
2022-12-26T00:48:29.896Z,8.87
2022-12-26T00:51:03.542Z,8.87
2022-12-26T01:04:15.616Z,8.85
2022-12-26T01:06:48.803Z,8.84
2022-12-26T01:09:23.796Z,8.85
2022-12-26T01:11:56.897Z,8.84
2022-12-26T01:14:30.534Z,8.85
2022-12-26T01:17:03.771Z,8.84
2022-12-26T01:29:53.513Z,8.82
2022-12-26T01:32:33.545Z,8.80
2022-12-26T01:35:07.772Z,8.80
2022-12-26T01:37:41.546Z,8.81
2022-12-26T01:40:15.100Z,8.83
2022-12-26T01:42:48.527Z,8.83
2022-12-26T01:56:12.527Z,8.84
2022-12-26T01:58:54.500Z,8.85
2022-12-26T02:01:40.689Z,8.86
2022-12-26T02:04:24.008Z,8.86
2022-12-26T02:07:04.550Z,8.85
2022-12-26T02:09:38.525Z,8.84
2022-12-26T02:12:37.440Z,8.85
2022-12-26T02:23:10.500Z,8.85
2022-12-26T02:26:40.504Z,8.86
2022-12-26T02:30:04.835Z,8.89
2022-12-26T02:33:34.567Z,8.87
2022-12-26T02:37:02.702Z,8.89
2022-12-26T02:50:12.500Z,8.90
2022-12-26T02:53:10.528Z,8.91
2022-12-26T02:55:49.588Z,8.92
2022-12-26T02:58:37.512Z,8.91
2022-12-26T03:01:29.776Z,8.91
2022-12-26T03:18:00.902Z,8.91
2022-12-26T03:20:37.935Z,8.92
2022-12-26T03:23:22.532Z,8.92
2022-12-26T03:26:00.950Z,8.92
2022-12-26T03:28:41.572Z,8.94
2022-12-26T03:31:16.605Z,8.92
2022-12-26T03:44:25.474Z,8.98
2022-12-26T03:47:21.574Z,8.99
2022-12-26T03:50:04.229Z,9.01
2022-12-26T03:52:54.592Z,9.02
2022-12-26T03:55:36.184Z,9.02
2022-12-26T03:58:27.504Z,9.05
2022-12-26T04:11:50.488Z,9.11
2022-12-26T04:14:40.355Z,9.11
2022-12-26T04:17:32.520Z,9.10
2022-12-26T04:20:16.157Z,9.12
2022-12-26T04:23:05.820Z,9.13
2022-12-26T04:36:39.504Z,9.18
2022-12-26T04:39:19.025Z,9.18
2022-12-26T04:42:02.546Z,9.18
2022-12-26T04:44:38.842Z,9.20
2022-12-26T04:47:12.508Z,9.20
2022-12-26T04:49:46.033Z,9.22
2022-12-26T04:52:21.527Z,9.22
2022-12-26T05:05:31.503Z,9.25
2022-12-26T05:08:24.635Z,9.27
2022-12-26T05:11:04.566Z,9.27
2022-12-26T05:13:38.388Z,9.27
2022-12-26T05:16:13.524Z,9.27
2022-12-26T05:30:03.555Z,9.29
2022-12-26T05:32:36.774Z,9.26
2022-12-26T05:35:10.548Z,9.26
2022-12-26T05:37:43.868Z,9.27
2022-12-26T05:40:18.507Z,9.26
2022-12-26T05:42:51.763Z,9.26
2022-12-26T05:59:07.557Z,9.31
2022-12-26T06:01:40.889Z,9.32
2022-12-26T06:04:14.511Z,9.33
2022-12-26T06:06:47.794Z,9.32
2022-12-26T06:09:21.463Z,9.32
2022-12-26T06:11:54.854Z,9.33
2022-12-26T06:24:45.456Z,9.32
2022-12-26T06:27:26.779Z,9.30
2022-12-26T06:30:06.807Z,9.30
2022-12-26T06:32:46.556Z,9.28
2022-12-26T06:35:19.856Z,9.27
2022-12-26T06:37:53.501Z,9.28
2022-12-26T06:51:09.493Z,9.22
2022-12-26T06:53:44.421Z,9.23
2022-12-26T06:56:20.497Z,9.19
2022-12-26T06:58:54.296Z,9.19
2022-12-26T07:01:29.546Z,9.18
2022-12-26T07:18:06.452Z,9.14
2022-12-26T07:20:46.482Z,9.13
2022-12-26T07:23:19.683Z,9.13
2022-12-26T07:25:53.484Z,9.14
2022-12-26T07:28:26.784Z,9.13
2022-12-26T07:31:01.462Z,9.11
2022-12-26T07:44:14.493Z,9.12
2022-12-26T07:46:47.773Z,9.12
2022-12-26T07:49:21.468Z,9.14
2022-12-26T07:51:54.760Z,9.12
2022-12-26T07:54:28.568Z,9.12
2022-12-26T07:57:29.786Z,9.14
2022-12-26T08:13:09.544Z,9.15
2022-12-26T08:15:42.764Z,9.15
2022-12-26T08:18:16.554Z,9.15
2022-12-26T08:20:51.101Z,9.17
2022-12-26T08:23:24.480Z,9.17
2022-12-26T08:26:04.999Z,9.19
2022-12-26T08:39:04.425Z,9.30
2022-12-26T08:41:46.559Z,9.33
2022-12-26T08:44:28.284Z,9.34
2022-12-26T08:47:08.467Z,9.39
2022-12-26T08:49:41.968Z,9.42
2022-12-26T08:52:15.526Z,9.45
2022-12-26T09:05:27.500Z,9.59
2022-12-26T09:08:00.702Z,9.60
2022-12-26T09:10:34.461Z,9.62
2022-12-26T09:13:07.723Z,9.64
2022-12-26T09:15:41.524Z,9.65
2022-12-26T09:18:14.806Z,9.67
2022-12-26T09:31:09.462Z,9.80
2022-12-26T09:33:49.480Z,9.82
2022-12-26T09:36:26.532Z,9.83
2022-12-26T09:39:08.162Z,9.86
2022-12-26T09:42:06.560Z,9.87
2022-12-26T09:45:04.482Z,9.92
2022-12-26T09:47:56.569Z,9.96
2022-12-26T09:57:46.482Z,10.07
2022-12-26T10:00:24.929Z,10.10
2022-12-26T10:03:08.462Z,10.13
2022-12-26T10:06:08.873Z,10.16
2022-12-26T10:09:20.503Z,10.18
2022-12-26T10:12:14.128Z,10.23
2022-12-26T10:25:30.371Z,10.40
2022-12-26T10:28:24.521Z,10.45
2022-12-26T10:31:03.705Z,10.47
2022-12-26T10:34:00.459Z,10.50
2022-12-26T10:36:41.691Z,10.51
2022-12-26T10:53:05.475Z,10.67
2022-12-26T10:55:38.916Z,10.68
2022-12-26T10:58:27.449Z,10.70
2022-12-26T11:01:35.809Z,10.71
2022-12-26T11:05:09.903Z,10.73
2022-12-26T11:07:18.653Z,10.73
2022-12-26T11:20:36.466Z,10.79
2022-12-26T11:26:16.947Z,10.85
2022-12-26T11:29:13.511Z,10.88
2022-12-26T11:31:55.900Z,10.89
2022-12-26T11:44:56.443Z,11.00
2022-12-26T11:47:37.441Z,11.01
2022-12-26T11:50:16.088Z,11.02
2022-12-26T11:53:09.433Z,11.04
2022-12-26T11:55:42.895Z,11.06
2022-12-26T11:58:27.495Z,11.07
2022-12-26T12:11:52.436Z,11.15
2022-12-26T12:14:54.377Z,11.16
2022-12-26T12:17:44.438Z,11.14
2022-12-26T12:20:32.663Z,11.15
2022-12-26T12:23:44.455Z,11.14
2022-12-26T12:26:35.942Z,11.10
2022-12-26T12:39:50.395Z,11.04
2022-12-26T12:42:52.577Z,11.03
2022-12-26T12:45:31.325Z,11.02
2022-12-26T12:48:38.435Z,11.00
2022-12-26T12:51:27.452Z,10.98
2022-12-26T13:04:57.399Z,10.94
2022-12-26T13:07:47.564Z,10.94
2022-12-26T13:10:27.804Z,10.93
2022-12-26T13:13:19.442Z,10.92
2022-12-26T13:20:18.443Z,10.90
2022-12-26T13:33:30.429Z,10.87
2022-12-26T13:36:05.952Z,10.88
2022-12-26T13:39:20.468Z,10.89
2022-12-26T13:42:01.154Z,10.87
2022-12-26T13:44:42.427Z,10.87
2022-12-26T13:47:33.367Z,10.88
2022-12-26T14:00:51.490Z,10.87
2022-12-26T14:03:54.487Z,10.88
2022-12-26T14:07:01.832Z,10.85
2022-12-26T14:09:56.453Z,10.83
2022-12-26T14:13:02.818Z,10.81
2022-12-26T14:26:11.408Z,10.67
2022-12-26T14:29:06.437Z,10.65
2022-12-26T14:32:09.317Z,10.62
2022-12-26T14:35:11.477Z,10.59
2022-12-26T14:37:56.348Z,10.55
2022-12-26T14:54:51.063Z,10.44
2022-12-26T14:57:45.020Z,10.42
2022-12-26T15:00:36.432Z,10.40
2022-12-26T15:03:40.778Z,10.39
2022-12-26T15:06:57.474Z,10.37
2022-12-26T15:21:03.513Z,10.28
2022-12-26T15:24:34.239Z,10.27
2022-12-26T15:28:08.341Z,10.25
2022-12-26T15:31:11.211Z,10.22
2022-12-26T15:33:59.455Z,10.21
2022-12-26T15:47:27.480Z,10.18
2022-12-26T15:50:27.596Z,10.19
2022-12-26T15:53:27.789Z,10.16
2022-12-26T15:56:27.436Z,10.15
2022-12-26T16:13:04.463Z,10.11
2022-12-26T16:15:46.340Z,10.10
2022-12-26T16:18:28.435Z,10.09
2022-12-26T16:21:06.441Z,10.08
2022-12-26T16:23:50.412Z,10.08
2022-12-26T16:26:28.684Z,10.07
2022-12-26T16:29:12.470Z,10.06
2022-12-26T16:38:58.375Z,10.05
2022-12-26T16:41:39.496Z,10.05
2022-12-26T16:44:31.191Z,10.04
2022-12-26T16:47:17.486Z,10.03
2022-12-26T16:49:52.523Z,10.02
2022-12-26T16:52:46.364Z,10.01
2022-12-26T17:05:58.389Z,10.00
2022-12-26T17:08:31.769Z,10.01
2022-12-26T17:11:05.402Z,10.00
2022-12-26T17:13:40.695Z,10.02
2022-12-26T17:16:15.456Z,10.00
2022-12-26T17:18:50.975Z,10.02
2022-12-26T17:32:30.372Z,9.95
2022-12-26T17:35:18.425Z,9.96
2022-12-26T17:37:58.622Z,9.95
2022-12-26T17:40:42.425Z,9.93
2022-12-26T17:43:24.867Z,9.93
2022-12-26T17:46:06.523Z,9.94
2022-12-26T17:48:42.431Z,9.93
2022-12-26T18:01:30.541Z,9.91
2022-12-26T18:04:13.407Z,9.88
2022-12-26T18:06:46.666Z,9.89
2022-12-26T18:09:33.471Z,9.90
2022-12-26T18:12:06.827Z,9.91
2022-12-26T18:14:40.413Z,9.91
2022-12-26T18:27:52.415Z,9.90
2022-12-26T18:30:25.692Z,9.93
2022-12-26T18:33:00.410Z,9.91
2022-12-26T18:35:33.700Z,9.93
2022-12-26T18:38:07.413Z,9.94
2022-12-26T18:54:28.367Z,9.96
2022-12-26T18:57:09.375Z,9.96
2022-12-26T18:59:42.602Z,9.94
2022-12-26T19:02:24.384Z,9.95
2022-12-26T19:04:57.690Z,9.95
2022-12-26T19:07:32.843Z,9.95
2022-12-26T19:20:45.421Z,9.96
2022-12-26T19:23:18.623Z,9.96
2022-12-26T19:25:45.404Z,9.96
2022-12-26T19:28:25.393Z,9.96
2022-12-26T19:31:06.858Z,9.94
2022-12-26T19:33:47.443Z,9.94
2022-12-26T19:47:11.415Z,9.96
2022-12-26T19:49:46.007Z,9.96
2022-12-26T19:52:19.429Z,9.96
2022-12-26T19:54:52.709Z,9.94
2022-12-26T19:57:26.411Z,9.97
2022-12-26T19:59:59.634Z,9.94
2022-12-26T20:13:01.398Z,9.91
2022-12-26T20:15:41.383Z,9.91
2022-12-26T20:18:15.196Z,9.93
2022-12-26T20:20:48.393Z,9.91
2022-12-26T20:23:21.722Z,9.92
2022-12-26T20:26:04.421Z,9.92
2022-12-26T20:28:39.967Z,9.92
2022-12-26T20:41:28.356Z,9.88
2022-12-26T20:44:10.393Z,9.88
2022-12-26T20:46:45.737Z,9.88
2022-12-26T20:49:19.380Z,9.84
2022-12-26T20:51:52.782Z,9.83
2022-12-26T20:54:26.409Z,9.83
2022-12-26T21:07:40.451Z,9.71
2022-12-26T21:10:13.846Z,9.68
2022-12-26T21:12:49.444Z,9.64
2022-12-26T21:15:22.843Z,9.60
2022-12-26T21:17:56.391Z,9.59
2022-12-26T21:34:36.350Z,9.46
2022-12-26T21:37:16.430Z,9.44
2022-12-26T21:39:49.684Z,9.43
2022-12-26T21:44:54.451Z,9.43
2022-12-26T21:47:21.254Z,9.42
2022-12-26T21:59:59.968Z,9.38
2022-12-26T22:02:43.559Z,9.36
2022-12-26T22:05:24.413Z,9.35
2022-12-26T22:08:06.445Z,9.33
2022-12-26T22:10:44.623Z,9.31
2022-12-26T22:13:25.979Z,9.27
2022-12-26T22:26:47.384Z,9.24
2022-12-26T22:29:20.625Z,9.25
2022-12-26T22:31:54.435Z,9.22
2022-12-26T22:34:27.587Z,9.22
2022-12-26T22:37:01.382Z,9.22
2022-12-26T22:39:34.721Z,9.17
2022-12-26T22:56:02.360Z,9.15
2022-12-26T22:58:35.611Z,9.14
2022-12-26T23:01:09.382Z,9.10
2022-12-26T23:03:42.801Z,9.09
2022-12-26T23:06:29.452Z,9.00
2022-12-26T23:09:10.091Z,8.91
2022-12-26T23:22:09.329Z,8.65
2022-12-26T23:24:49.410Z,8.58
2022-12-26T23:27:23.005Z,8.53
2022-12-26T23:30:08.661Z,8.48
2022-12-26T23:32:44.861Z,8.41
2022-12-26T23:49:07.364Z,8.38
2022-12-26T23:51:42.416Z,8.40
2022-12-26T23:54:16.425Z,8.43
2022-12-26T23:56:49.620Z,8.42
2022-12-26T23:59:23.408Z,8.41
